Time;durP1;ratioP1;P1;durP2;ratioP2;P2;SDS_P1;SDS_P2;PMS_P1;PMS_P2;Temp;Humidity;BMP_temperature;BMP_pressure;BME280_temperature;BME280_humidity;BME280_pressure;Samples;Min_cycle;Max_cycle;Signal;HPM_P1;HPM_P2
2022/02/17 00:01:24;;;;;;;1.30;1.00;;;11.60;76.70;;;10.73;63.02;93404.38;6104503;23;20172;-81
2022/02/17 00:03:51;;;;;;;1.00;1.00;;;11.50;76.90;;;10.73;63.61;93407.00;6103959;23;20172;-81
2022/02/17 00:06:18;;;;;;;0.90;0.90;;;11.40;76.90;;;10.73;63.99;93400.97;6103800;23;20250;-81
2022/02/17 00:08:45;;;;;;;0.80;0.80;;;11.40;77.20;;;10.70;64.26;93391.72;6128399;23;20564;-81
2022/02/17 00:11:13;;;;;;;1.88;0.95;;;11.40;77.40;;;10.71;63.70;93400.41;6129967;23;20193;-80
2022/02/17 00:13:40;;;;;;;1.08;1.00;;;11.40;77.50;;;10.68;63.64;93378.06;6106709;23;20674;-80
2022/02/17 00:16:06;;;;;;;1.20;1.10;;;11.30;77.50;;;10.66;64.49;93367.00;6130814;23;20199;-79
2022/02/17 00:18:34;;;;;;;0.98;0.98;;;11.30;77.60;;;10.65;64.36;93391.59;6106147;23;20240;-81
2022/02/17 00:21:01;;;;;;;1.00;1.00;;;11.30;78.60;;;10.62;65.17;93362.44;6155398;23;20189;-80
2022/02/17 00:23:28;;;;;;;0.90;0.90;;;11.30;78.00;;;10.63;65.29;93370.09;6130024;23;20219;-80
2022/02/17 00:25:55;;;;;;;1.13;1.02;;;11.30;78.20;;;10.60;66.10;93364.50;6153995;23;20594;-79
2022/02/17 00:28:23;;;;;;;1.55;1.00;;;11.30;78.40;;;10.63;64.99;93353.53;6130516;23;20173;-80
2022/02/17 00:30:51;;;;;;;1.00;1.00;;;11.20;78.30;;;10.61;65.99;93361.66;6129993;23;20271;-80
2022/02/17 00:33:19;;;;;;;1.00;1.00;;;11.20;78.70;;;10.62;66.38;93346.69;6130137;23;20247;-80
2022/02/17 00:35:46;;;;;;;0.90;0.90;;;11.20;79.00;;;10.60;65.69;93327.81;6082176;23;20561;-80
2022/02/17 00:38:14;;;;;;;0.95;0.95;;;11.20;78.80;;;10.61;65.73;93316.25;6106380;23;20195;-79
2022/02/17 00:40:41;;;;;;;1.00;1.00;;;11.20;78.80;;;10.65;65.40;93343.63;6130228;23;20652;-81
2022/02/17 00:43:08;;;;;;;1.02;0.90;;;11.20;78.70;;;10.64;65.51;93323.69;6130002;23;20172;-80
2022/02/17 00:45:35;;;;;;;1.20;1.20;;;11.20;78.80;;;10.66;66.05;93326.88;6105906;23;20233;-80
2022/02/17 00:48:03;;;;;;;0.90;0.90;;;11.20;79.10;;;10.64;66.14;93300.88;6082593;23;20601;-80
2022/02/17 00:50:34;;;;;;;0.90;0.90;;;11.30;79.10;;;10.64;66.15;93306.09;6130437;23;20275;-81
2022/02/17 00:53:01;;;;;;;0.70;0.70;;;11.30;79.20;;;10.68;66.30;93322.19;6129811;23;20232;-79
2022/02/17 00:55:29;;;;;;;0.80;0.80;;;11.30;79.40;;;10.68;66.72;93303.81;6105935;23;20244;-80
2022/02/17 00:57:57;;;;;;;0.80;0.80;;;11.40;79.50;;;10.70;66.42;93301.78;6106207;23;20177;-79
2022/02/17 01:00:25;;;;;;;0.80;0.80;;;11.30;79.50;;;10.73;66.73;93275.09;6105757;23;20275;-79
2022/02/17 01:03:03;;;;;;;1.05;0.90;;;11.30;79.70;;;10.73;66.55;93282.97;6130012;23;20214;-80
2022/02/17 01:05:33;;;;;;;0.70;0.70;;;11.30;79.50;;;10.72;66.54;93292.66;6130595;23;20220;-80
2022/02/17 01:08:00;;;;;;;0.90;0.90;;;11.40;79.70;;;10.78;66.97;93283.06;6105516;23;20185;-80
2022/02/17 01:10:28;;;;;;;1.13;0.80;;;11.40;79.90;;;10.79;66.79;93282.03;6105878;23;20540;-79
2022/02/17 01:12:59;;;;;;;0.90;0.90;;;11.40;79.80;;;10.81;66.88;93263.44;6106008;23;20634;-79
2022/02/17 01:15:30;;;;;;;0.75;0.75;;;11.40;79.70;;;10.81;67.31;93266.84;6082265;23;20761;-79
2022/02/17 01:17:58;;;;;;;0.80;0.80;;;11.50;79.80;;;10.81;66.43;93255.56;6129760;23;20161;-80
2022/02/17 01:20:30;;;;;;;0.90;0.90;;;11.50;79.60;;;10.81;66.82;93252.94;6129640;23;20279;-79
2022/02/17 01:22:59;;;;;;;0.80;0.80;;;11.50;79.70;;;10.84;66.31;93240.16;6129765;23;20179;-81
2022/02/17 01:25:26;;;;;;;0.60;0.60;;;11.50;79.50;;;10.82;66.45;93250.06;6130119;23;20236;-80
2022/02/17 01:27:57;;;;;;;0.90;0.90;;;11.50;79.40;;;10.87;66.40;93254.63;6082107;23;20188;-81
2022/02/17 01:30:27;;;;;;;0.80;0.80;;;11.50;79.40;;;10.91;66.07;93247.09;6129677;23;20275;-80
2022/02/17 01:32:54;;;;;;;0.80;0.80;;;11.60;79.40;;;10.95;66.40;93232.47;6104938;23;20526;-80
2022/02/17 01:35:23;;;;;;;0.70;0.70;;;11.60;79.50;;;10.98;66.60;93243.28;6105570;23;20587;-80
2022/02/17 01:38:05;;;;;;;0.77;0.77;;;11.70;79.60;;;11.01;66.54;93221.84;6129333;23;20224;-80
2022/02/17 01:40:35;;;;;;;0.70;0.70;;;11.60;79.60;;;11.02;66.93;93240.97;6129737;23;20192;-80
2022/02/17 01:43:04;;;;;;;0.80;0.80;;;11.70;79.70;;;11.04;67.03;93220.56;6129896;23;20177;-80
2022/02/17 01:45:32;;;;;;;0.70;0.70;;;11.80;79.60;;;11.09;66.58;93267.88;6129637;23;20309;-80
2022/02/17 01:47:59;;;;;;;0.65;0.65;;;11.70;79.60;;;11.12;66.52;93238.56;6105345;23;20204;-80
2022/02/17 01:50:32;;;;;;;0.80;0.80;;;11.70;79.60;;;11.17;66.20;93225.50;6127833;23;20540;-80
2022/02/17 01:53:00;;;;;;;0.80;0.80;;;11.80;79.40;;;11.24;65.83;93225.34;6129331;23;20612;-80
2022/02/17 01:55:36;;;;;;;0.70;0.70;;;11.80;79.30;;;11.27;66.13;93229.34;6106936;23;20200;-80
2022/02/17 01:58:03;;;;;;;0.80;0.80;;;11.90;79.30;;;11.30;65.69;93202.63;6081211;23;20499;-80
2022/02/17 02:00:32;;;;;;;0.80;0.80;;;11.90;79.00;;;11.32;65.73;93201.34;6105309;23;20197;-79
2022/02/17 02:03:04;;;;;;;0.70;0.70;;;11.90;79.00;;;11.34;65.45;93180.91;6130176;23;20180;-80
2022/02/17 02:05:50;;;;;;;0.70;0.70;;;12.00;78.90;;;11.43;65.48;93191.78;6154371;23;20211;-80
2022/02/17 02:08:19;;;;;;;0.70;0.70;;;12.00;79.80;;;11.49;65.35;93179.56;6128966;23;20268;-80
2022/02/17 02:10:48;;;;;;;0.63;0.63;;;12.10;78.90;;;11.54;65.14;93180.41;6081205;23;20197;-80
2022/02/17 02:13:15;;;;;;;0.80;0.80;;;12.10;78.90;;;11.60;65.14;93207.53;6105041;23;20181;-81
2022/02/17 02:15:52;;;;;;;0.80;0.80;;;12.10;78.80;;;11.68;64.99;93190.56;6105417;23;20206;-80
2022/02/17 02:18:22;;;;;;;0.90;0.90;;;12.20;78.80;;;11.74;64.90;93179.09;6129076;23;20176;-80
2022/02/17 02:20:56;;;;;;;0.80;0.80;;;12.20;78.80;;;11.81;64.87;93184.97;6153420;23;20192;-80
2022/02/17 02:23:32;;;;;;;0.90;0.90;;;12.30;78.80;;;11.87;64.85;93183.22;6129375;23;20173;-80
2022/02/17 02:26:02;;;;;;;0.82;0.82;;;12.30;78.70;;;11.89;64.82;93185.59;6105480;23;20212;-80
2022/02/17 02:28:32;;;;;;;0.80;0.80;;;12.40;78.70;;;11.97;64.96;93158.94;6104367;23;20173;-79
2022/02/17 02:31:02;;;;;;;1.63;0.80;;;12.40;78.60;;;11.99;64.13;93141.13;6082387;23;20204;-80
2022/02/17 02:33:30;;;;;;;1.70;0.77;;;12.50;78.60;;;12.10;64.08;93136.78;6153350;23;20177;-81
2022/02/17 02:36:00;;;;;;;0.70;0.70;;;12.50;78.50;;;12.12;63.94;93153.91;6105082;23;20220;-80
2022/02/17 02:38:48;;;;;;;0.80;0.80;;;12.60;78.40;;;12.14;64.19;93140.50;6108648;23;20254;-80
2022/02/17 02:41:17;;;;;;;0.70;0.70;;;12.70;78.40;;;12.15;63.95;93134.22;6105005;23;20197;-81
2022/02/17 02:43:50;;;;;;;0.80;0.80;;;12.70;78.20;;;12.22;63.53;93144.53;6106452;23;20172;-81
2022/02/17 02:46:19;;;;;;;0.82;0.80;;;12.70;78.00;;;12.24;63.64;93140.63;6081643;23;20197;-81
2022/02/17 02:48:51;;;;;;;0.70;0.70;;;12.70;77.90;;;12.26;63.43;93135.91;6129209;23;20169;-81
2022/02/17 02:51:19;;;;;;;0.90;0.90;;;12.80;77.80;;;12.32;63.11;93134.13;6128508;23;20177;-80
2022/02/17 02:53:48;;;;;;;0.80;0.80;;;12.80;77.80;;;12.33;62.92;93120.75;6080560;23;20176;-80
2022/02/17 02:56:16;;;;;;;0.80;0.80;;;12.80;77.60;;;12.39;62.71;93133.94;6104105;23;20203;-81
2022/02/17 02:58:43;;;;;;;0.80;0.80;;;12.80;77.60;;;12.41;62.80;93110.81;6104735;23;20177;-81
2022/02/17 03:01:11;;;;;;;0.80;0.80;;;12.80;77.50;;;12.46;62.64;93102.97;6105025;23;20204;-81
2022/02/17 03:03:41;;;;;;;0.70;0.70;;;12.90;77.50;;;12.51;62.37;93125.91;6130233;23;20422;-81
2022/02/17 03:06:08;;;;;;;0.80;0.80;;;12.90;77.40;;;12.54;62.40;93122.81;6103696;23;20236;-80
2022/02/17 03:08:38;;;;;;;0.80;0.80;;;12.90;77.30;;;12.57;62.22;93125.72;6105794;23;20188;-80
2022/02/17 03:11:05;;;;;;;0.70;0.70;;;13.00;77.20;;;12.53;62.00;93115.94;6104706;23;20636;-81
2022/02/17 03:13:38;;;;;;;0.73;0.73;;;13.00;76.90;;;12.60;61.88;93122.59;6106175;23;20180;-81
2022/02/17 03:16:06;;;;;;;0.70;0.70;;;13.00;76.90;;;12.60;61.75;93119.97;6104314;23;20200;-81
2022/02/17 03:18:34;;;;;;;0.75;0.75;;;13.10;76.80;;;12.65;61.59;93133.16;6103978;23;20203;-81
2022/02/17 03:21:02;;;;;;;0.80;0.80;;;13.00;76.70;;;12.68;61.92;93126.59;6129083;23;20583;-80
2022/02/17 03:23:29;;;;;;;0.90;0.90;;;13.00;76.70;;;12.69;61.32;93135.28;6105033;23;20215;-81
2022/02/17 03:26:07;;;;;;;0.80;0.80;;;13.10;76.80;;;12.67;61.27;93121.59;6105866;23;20207;-80
2022/02/17 03:28:35;;;;;;;0.80;0.80;;;13.20;76.90;;;12.76;61.48;93117.47;6129129;23;20180;-81
2022/02/17 03:31:03;;;;;;;0.80;0.80;;;13.20;76.90;;;12.77;61.44;93130.38;6128718;23;20200;-81
2022/02/17 03:33:34;;;;;;;0.80;0.80;;;13.20;76.90;;;12.79;61.25;93122.22;6128985;23;20259;-81
2022/02/17 03:36:03;;;;;;;0.82;0.82;;;13.20;76.90;;;12.79;60.89;93138.81;6104611;23;20198;-80
2022/02/17 03:38:31;;;;;;;0.80;0.80;;;13.20;76.90;;;12.82;61.23;93127.00;6128729;23;20180;-82
2022/02/17 03:40:58;;;;;;;0.80;0.80;;;13.20;76.90;;;12.85;60.85;93107.28;6129359;23;20204;-81
2022/02/17 03:43:34;;;;;;;0.60;0.60;;;13.20;76.80;;;12.85;60.99;93118.59;6107695;23;20183;-79
2022/02/17 03:46:03;;;;;;;0.80;0.80;;;13.20;76.70;;;12.86;60.82;93096.50;6104239;23;20210;-81
2022/02/17 03:48:30;;;;;;;0.68;0.60;;;13.30;76.70;;;12.84;60.72;93126.75;6103923;23;20177;-80
2022/02/17 03:51:07;;;;;;;0.60;0.60;;;13.30;76.50;;;12.80;60.71;93076.47;6084525;23;20200;-81
2022/02/17 03:53:35;;;;;;;0.80;0.80;;;13.30;76.50;;;12.82;60.79;93092.81;6104136;23;20592;-81
2022/02/17 03:56:04;;;;;;;0.80;0.80;;;13.20;76.30;;;12.80;60.53;93069.38;6105101;23;20687;-80
2022/02/17 03:59:08;;;;;;;1.00;1.00;;;13.30;76.20;;;12.75;60.54;93060.66;6135921;23;20242;-81
2022/02/17 04:01:41;;;;;;;0.70;0.70;;;13.30;76.20;;;12.75;60.68;93076.44;6127593;23;20489;-80
2022/02/17 04:04:10;;;;;;;0.80;0.80;;;13.20;76.20;;;12.72;60.62;93069.84;6103820;23;20187;-81
2022/02/17 04:06:39;;;;;;;0.70;0.70;;;13.20;76.20;;;12.72;60.55;93053.25;6127297;23;20208;-81
2022/02/17 04:09:08;;;;;;;0.70;0.70;;;13.30;76.20;;;12.65;60.64;93043.72;6104668;23;20173;-81
2022/02/17 04:11:36;;;;;;;0.65;0.65;;;13.20;76.20;;;12.73;60.38;93058.28;6104228;23;20176;-81
2022/02/17 04:14:04;;;;;;;0.80;0.80;;;13.20;76.30;;;12.76;60.58;93051.72;6103912;23;20176;-82
2022/02/17 04:16:36;;;;;;;0.70;0.70;;;13.10;76.30;;;12.78;60.59;93039.09;6104930;23;20199;-81
2022/02/17 04:19:26;;;;;;;0.80;0.80;;;13.20;76.30;;;12.80;60.61;93044.88;6107627;23;20201;-81
2022/02/17 04:22:26;;;;;;;0.70;0.70;;;13.30;76.30;;;12.78;60.20;93037.25;6126907;23;20176;-81
2022/02/17 04:25:12;;;;;;;0.60;0.60;;;13.20;76.20;;;12.79;60.39;93046.75;6087910;23;20575;-81
2022/02/17 04:27:41;;;;;;;0.80;0.80;;;13.20;76.10;;;12.83;60.65;93047.03;6105167;23;20203;-81
2022/02/17 04:30:10;;;;;;;0.80;0.80;;;13.30;76.20;;;12.86;60.64;93053.63;6103207;23;20272;-80
2022/02/17 04:32:38;;;;;;;0.70;0.70;;;13.30;76.30;;;12.88;60.39;93041.03;6103745;23;20235;-80
2022/02/17 04:35:07;;;;;;;0.70;0.70;;;13.30;76.20;;;12.92;60.58;93039.47;6128719;23;20193;-81
2022/02/17 04:37:34;;;;;;;0.70;0.70;;;13.30;76.20;;;12.95;60.50;93045.00;6104331;23;20184;-82
2022/02/17 04:40:02;;;;;;;1.55;0.80;;;13.40;76.20;;;12.98;60.42;93031.34;6104251;23;20200;-81
2022/02/17 04:42:37;;;;;;;0.90;0.90;;;13.30;76.10;;;13.05;60.17;92998.75;6128578;23;20227;-81
2022/02/17 04:45:07;;;;;;;0.90;0.90;;;13.40;76.20;;;13.08;60.23;92998.25;6104028;23;20201;-81
2022/02/17 04:47:35;;;;;;;0.80;0.80;;;13.40;76.90;;;13.11;60.09;93013.53;6104236;23;20668;-81
2022/02/17 04:50:03;;;;;;;0.80;0.80;;;13.50;76.00;;;13.11;60.05;92988.00;6128149;23;20207;-80
2022/02/17 04:52:35;;;;;;;0.80;0.80;;;13.50;75.90;;;13.10;59.96;92970.63;6105483;23;20175;-81
2022/02/17 04:55:03;;;;;;;3.53;1.65;;;13.50;75.90;;;13.11;60.00;92979.31;6127455;23;20220;-81
2022/02/17 04:57:30;;;;;;;0.80;0.80;;;13.50;75.70;;;13.09;59.82;93005.88;6130133;23;20177;-82
2022/02/17 04:59:57;;;;;;;0.95;0.95;;;13.50;75.70;;;13.00;59.92;92954.78;6105520;23;20283;-80
2022/02/17 05:02:25;;;;;;;0.80;0.80;;;13.50;75.60;;;13.04;59.98;92955.06;6105495;23;20181;-80
2022/02/17 05:05:15;;;;;;;3.05;0.90;;;13.50;75.60;;;13.05;59.55;92969.78;6134619;23;20193;-83
2022/02/17 05:07:42;;;;;;;0.80;0.80;;;13.50;75.70;;;13.06;59.87;92959.03;6105396;23;20263;-80
2022/02/17 05:10:13;;;;;;;1.15;0.88;;;13.50;75.80;;;13.08;59.68;92992.97;6106753;23;20208;-82
2022/02/17 05:12:45;;;;;;;0.75;0.75;;;13.50;76.50;;;13.10;59.77;92961.94;6107234;23;20176;-82
2022/02/17 05:15:12;;;;;;;0.80;0.80;;;13.50;75.70;;;13.13;59.39;92949.06;6081987;23;20644;-81
2022/02/17 05:17:42;;;;;;;0.70;0.70;;;13.50;75.70;;;13.17;59.47;92938.00;6129962;23;20176;-81
2022/02/17 05:20:16;;;;;;;0.70;0.70;;;13.50;75.60;;;13.21;59.24;92942.50;6129649;23;20197;-81
2022/02/17 05:23:10;;;;;;;0.90;0.90;;;13.50;75.50;;;13.26;59.28;92921.47;6111308;23;20177;-81
2022/02/17 05:26:06;;;;;;;0.70;0.70;;;13.60;75.50;;;13.32;59.31;92914.38;6123880;23;20204;-81
2022/02/17 05:28:52;;;;;;;0.80;0.80;;;13.60;75.50;;;13.29;59.14;92914.88;6133985;23;20251;-81
2022/02/17 05:31:40;;;;;;;0.68;0.68;;;13.70;75.40;;;13.36;58.99;92912.03;6132510;23;20612;-81
2022/02/17 05:34:34;;;;;;;0.82;0.80;;;13.80;75.30;;;13.38;58.78;92941.56;6129396;23;20196;-81
2022/02/17 05:37:24;;;;;;;0.80;0.80;;;13.80;75.10;;;13.47;58.60;92953.16;6133051;23;20554;-81
2022/02/17 05:40:08;;;;;;;0.80;0.80;;;13.80;75.10;;;13.51;58.38;92950.81;6128191;23;20210;-82
2022/02/17 05:42:36;;;;;;;0.68;0.68;;;13.80;75.00;;;13.54;58.43;92945.03;6129442;23;20177;-82
2022/02/17 05:45:05;;;;;;;0.80;0.80;;;13.90;75.00;;;13.57;58.07;92952.41;6106023;23;20197;-82
2022/02/17 05:47:33;;;;;;;0.70;0.70;;;13.90;74.80;;;13.58;57.63;92986.38;6128663;23;20263;-81
2022/02/17 05:50:00;;;;;;;0.50;0.50;;;13.90;74.60;;;13.60;57.46;92930.84;6105089;23;20235;-81
2022/02/17 05:52:28;;;;;;;0.90;0.90;;;13.90;74.50;;;13.64;58.00;92925.84;6105894;23;20215;-81
2022/02/17 05:54:55;;;;;;;0.98;0.90;;;14.00;74.70;;;13.67;57.23;92938.47;6130079;23;20227;-81
2022/02/17 05:57:22;;;;;;;1.00;0.80;;;13.90;74.20;;;13.65;56.72;92949.28;6105445;23;20224;-81
2022/02/17 05:59:49;;;;;;;0.75;0.75;;;14.00;73.90;;;13.65;56.46;92954.56;6130013;23;20220;-81
2022/02/17 06:02:17;;;;;;;0.80;0.80;;;14.00;73.80;;;13.69;56.42;92928.47;6103269;23;20612;-81
2022/02/17 06:04:45;;;;;;;0.70;0.70;;;14.00;73.80;;;13.71;56.51;92934.28;6103959;23;20196;-81
2022/02/17 06:07:13;;;;;;;1.02;1.00;;;14.00;73.80;;;13.73;56.64;92926.91;6102734;23;20213;-81
2022/02/17 06:09:41;;;;;;;0.70;0.70;;;14.00;73.80;;;13.74;56.51;92941.66;6102528;23;20196;-81
2022/02/17 06:12:09;;;;;;;0.60;0.60;;;14.00;73.80;;;13.75;56.66;92922.94;6127311;23;20676;-81
2022/02/17 06:14:37;;;;;;;0.80;0.80;;;14.10;73.70;;;13.77;56.08;92941.94;6102169;23;20243;-80
2022/02/17 06:17:04;;;;;;;0.80;0.80;;;14.10;73.40;;;13.82;56.05;92925.34;6125656;23;20543;-80
2022/02/17 06:19:31;;;;;;;0.80;0.80;;;14.20;73.50;;;13.84;56.49;92949.59;6128352;23;20682;-82
2022/02/17 06:21:59;;;;;;;0.80;0.80;;;14.10;73.40;;;13.85;56.32;92937.22;6129375;23;20204;-82
2022/02/17 06:24:27;;;;;;;0.77;0.77;;;14.20;73.40;;;13.90;55.83;92985.47;6126416;23;20555;-80
2022/02/17 06:26:55;;;;;;;0.93;0.90;;;14.20;73.10;;;13.90;55.91;92935.38;6126457;23;20201;-81
2022/02/17 06:29:22;;;;;;;0.80;0.80;;;14.30;73.10;;;13.93;55.56;92966.47;6102963;23;20208;-81
2022/02/17 06:31:49;;;;;;;0.80;0.80;;;14.20;72.90;;;13.98;55.52;92975.47;6102529;23;20518;-81
2022/02/17 06:34:17;;;;;;;0.80;0.80;;;14.30;73.10;;;13.97;54.93;92966.75;6103259;23;20200;-82
2022/02/17 06:36:46;;;;;;;0.88;0.88;;;14.30;72.50;;;13.98;54.95;92973.59;6127964;23;20228;-81
2022/02/17 06:39:14;;;;;;;0.85;0.80;;;14.30;72.50;;;13.91;54.50;92963.31;6150601;23;20268;-81
2022/02/17 06:41:42;;;;;;;0.70;0.70;;;14.40;72.20;;;13.96;54.96;92930.13;6102647;23;20224;-81
2022/02/17 06:44:10;;;;;;;0.80;0.80;;;14.30;72.30;;;13.92;54.64;92953.56;6126518;23;20169;-80
2022/02/17 06:46:38;;;;;;;0.70;0.70;;;14.30;72.30;;;13.99;54.29;92955.94;6104598;23;20652;-81
2022/02/17 06:49:05;;;;;;;0.80;0.80;;;14.40;72.00;;;13.98;54.15;92913.00;6129075;23;20173;-82
2022/02/17 06:51:32;;;;;;;0.88;0.88;;;14.30;71.80;;;14.04;54.00;92948.06;6105052;23;20177;-81
2022/02/17 06:54:02;;;;;;;0.70;0.70;;;14.40;71.80;;;14.08;53.81;92925.38;6105459;23;20204;-81
2022/02/17 06:56:29;;;;;;;0.70;0.70;;;14.40;71.80;;;14.16;54.37;92934.59;6104030;23;20173;-84
2022/02/17 06:58:56;;;;;;;0.70;0.70;;;14.50;71.90;;;14.18;53.95;92921.97;6105003;23;20177;-81
2022/02/17 07:01:25;;;;;;;2.13;1.40;;;14.40;71.80;;;14.24;53.79;92919.06;6129576;23;20620;-83
2022/02/17 07:03:52;;;;;;;1.17;1.17;;;14.50;71.60;;;14.28;54.03;92947.53;6104663;23;20176;-83
2022/02/17 07:06:23;;;;;;;0.70;0.70;;;14.50;71.80;;;14.29;53.18;92909.56;6104115;23;20357;-82
2022/02/17 07:08:51;;;;;;;0.70;0.70;;;14.50;71.30;;;14.32;53.84;92964.41;6106019;23;20627;-81
2022/02/17 07:11:18;;;;;;;0.98;0.90;;;14.60;71.50;;;14.32;53.18;92952.03;6127914;23;20168;-80
2022/02/17 07:13:48;;;;;;;0.80;0.80;;;14.60;71.10;;;14.29;53.33;92920.91;6129887;23;20165;-82
2022/02/17 07:16:15;;;;;;;0.70;0.70;;;14.60;71.30;;;14.38;53.68;92932.50;6104624;23;20283;-81
2022/02/17 07:18:46;;;;;;;0.77;0.63;;;14.60;71.10;;;14.43;52.74;92955.47;6128832;23;20169;-81
2022/02/17 07:21:14;;;;;;;0.70;0.70;;;14.70;70.90;;;14.51;53.19;92948.88;6104094;23;20188;-81
2022/02/17 07:23:41;;;;;;;1.70;0.80;;;14.70;71.00;;;14.54;53.20;92964.94;6103652;23;20231;-81
2022/02/17 07:26:11;;;;;;;0.90;0.90;;;14.70;71.20;;;14.61;52.84;92951.50;6104279;23;20251;-81
2022/02/17 07:28:39;;;;;;;0.80;0.80;;;14.80;70.80;;;14.62;51.70;92960.97;6128609;23;20620;-81
2022/02/17 07:31:07;;;;;;;0.70;0.70;;;14.80;70.30;;;14.63;52.04;92936.19;6105084;23;20227;-81
2022/02/17 07:33:34;;;;;;;0.75;0.75;;;14.90;70.60;;;14.64;51.59;92937.00;6104428;23;20503;-82
2022/02/17 07:36:02;;;;;;;0.70;0.70;;;14.80;70.20;;;14.68;52.02;92964.44;6127702;23;20276;-81
2022/02/17 07:38:47;;;;;;;0.60;0.60;;;14.90;70.40;;;14.75;51.58;92974.75;6108763;23;20181;-82
2022/02/17 07:41:15;;;;;;;0.80;0.80;;;15.00;70.30;;;14.78;51.30;92982.13;6080752;23;20279;-81
2022/02/17 07:43:43;;;;;;;0.70;0.70;;;15.00;69.90;;;14.75;51.17;92980.03;6104623;23;20264;-82
2022/02/17 07:46:12;;;;;;;0.65;0.65;;;15.00;69.80;;;14.79;50.86;92944.13;6103903;23;20204;-81
2022/02/17 07:48:39;;;;;;;0.90;0.90;;;15.00;69.80;;;14.83;51.34;92951.25;6128934;23;20600;-82
2022/02/17 07:51:07;;;;;;;0.85;0.85;;;15.00;69.80;;;14.84;51.27;92952.03;6104518;23;20240;-81
2022/02/17 07:53:34;;;;;;;3.13;1.00;;;15.00;69.70;;;14.88;51.11;92968.94;6104894;23;20180;-82
2022/02/17 07:56:02;;;;;;;0.80;0.80;;;15.10;69.70;;;14.87;51.45;92968.13;6128560;23;20253;-82
2022/02/17 07:58:29;;;;;;;0.80;0.80;;;15.10;69.80;;;14.88;51.81;92982.13;6104149;23;20177;-81
2022/02/17 08:00:56;;;;;;;0.63;0.63;;;15.10;69.90;;;14.84;51.70;92975.78;6127738;23;20275;-82
2022/02/17 08:03:24;;;;;;;0.80;0.80;;;15.10;69.80;;;14.83;51.81;92990.84;6104784;23;20177;-81
2022/02/17 08:05:51;;;;;;;0.90;0.90;;;15.10;69.70;;;14.75;52.58;92996.63;6128176;23;20219;-81
2022/02/17 08:08:24;;;;;;;0.70;0.70;;;15.10;70.10;;;14.63;52.87;92994.22;6104559;23;20204;-80
2022/02/17 08:10:51;;;;;;;0.80;0.80;;;15.10;70.10;;;14.39;54.72;93013.22;6128510;23;20584;-81
2022/02/17 08:13:19;;;;;;;1.02;0.80;;;15.00;71.50;;;13.95;57.63;92997.06;6129027;23;20176;-80
2022/02/17 08:15:46;;;;;;;0.80;0.80;;;14.80;71.90;;;13.60;58.07;93013.28;6104692;23;20197;-80
2022/02/17 08:18:13;;;;;;;1.00;1.00;;;14.70;72.00;;;13.34;58.43;92993.91;6128601;23;20172;-80
2022/02/17 08:20:44;;;;;;;0.75;0.75;;;14.50;72.10;;;13.17;58.27;93009.88;6104363;23;20211;-81
2022/02/17 08:23:12;;;;;;;0.80;0.80;;;14.30;72.10;;;13.00;59.33;92999.53;6105255;23;20289;-81
2022/02/17 08:25:40;;;;;;;1.77;0.90;;;14.20;72.80;;;12.89;59.34;93017.09;6127648;23;20204;-81
2022/02/17 08:28:07;;;;;;;0.90;0.90;;;14.00;73.20;;;12.82;59.81;93016.50;6128253;23;20224;-81
2022/02/17 08:30:36;;;;;;;0.80;0.80;;;13.90;73.40;;;12.75;60.18;93026.44;6104608;23;20356;-81
2022/02/17 08:33:04;;;;;;;0.70;0.70;;;13.80;73.90;;;12.67;61.09;93040.06;6106611;23;20181;-81
2022/02/17 08:35:31;;;;;;;0.90;0.90;;;13.70;74.90;;;12.56;62.78;93028.66;6130505;23;20193;-81
2022/02/17 08:38:04;;;;;;;0.90;0.90;;;13.60;75.50;;;12.46;62.88;93045.13;6107327;23;20620;-80
2022/02/17 08:40:31;;;;;;;1.75;0.80;;;13.50;75.50;;;12.38;63.00;93051.66;6130065;23;20212;-80
2022/02/17 08:43:08;;;;;;;1.00;1.00;;;13.40;75.80;;;12.31;63.59;93082.59;6129823;23;20176;-79
2022/02/17 08:45:41;;;;;;;0.70;0.70;;;13.20;76.20;;;12.21;64.00;93080.66;6156205;23;20189;-80
2022/02/17 08:48:11;;;;;;;0.80;0.80;;;13.20;76.70;;;12.12;63.97;93093.44;6130619;23;20670;-80
2022/02/17 08:50:40;;;;;;;0.80;0.80;;;13.10;76.80;;;12.12;64.44;93114.47;6106099;23;20243;-80
2022/02/17 08:53:07;;;;;;;2.58;1.05;;;13.00;77.00;;;12.01;64.32;93102.22;6130850;23;20219;-79
2022/02/17 08:55:52;;;;;;;3.50;1.00;;;12.90;76.90;;;11.77;64.75;93144.50;6130122;23;20203;-80
2022/02/17 08:58:19;;;;;;;1.00;1.00;;;12.80;77.00;;;11.62;65.08;93144.28;6128716;23;20181;-80
2022/02/17 09:00:47;;;;;;;1.13;1.00;;;12.70;77.00;;;11.45;65.34;93136.41;6104924;23;20200;-80
2022/02/17 09:03:17;;;;;;;1.38;1.27;;;12.50;77.10;;;11.29;66.00;93175.59;6106171;23;20177;-80
2022/02/17 09:05:44;;;;;;;1.95;1.20;;;12.30;77.40;;;11.17;65.83;93182.75;6105745;23;20502;-78
2022/02/17 09:08:31;;;;;;;2.30;1.30;;;12.10;77.50;;;11.02;66.67;93162.28;6134024;23;20203;-79
2022/02/17 09:10:58;;;;;;;2.00;1.00;;;12.00;78.10;;;10.99;68.35;93187.16;6156407;23;20259;-79
2022/02/17 09:13:27;;;;;;;1.58;1.10;;;11.90;79.30;;;10.95;68.48;93188.69;6106537;23;20604;-79
2022/02/17 09:15:56;;;;;;;1.73;1.25;;;11.80;79.30;;;10.89;68.05;93166.81;6105467;23;20197;-80
2022/02/17 09:18:23;;;;;;;1.98;1.30;;;11.70;79.30;;;10.85;66.98;93183.25;6155215;23;20165;-80
2022/02/17 09:20:51;;;;;;;2.35;1.20;;;11.60;79.00;;;10.82;67.10;93174.03;6105283;23;20283;-79
2022/02/17 09:23:19;;;;;;;2.33;1.08;;;11.60;78.90;;;10.79;66.58;93171.88;6130302;23;20188;-80
2022/02/17 09:25:46;;;;;;;2.55;1.38;;;11.50;78.50;;;10.77;66.19;93181.03;6105723;23;20203;-78
2022/02/17 09:28:15;;;;;;;1.85;1.30;;;11.50;78.40;;;10.75;65.90;93209.31;6105850;23;20208;-80
2022/02/17 09:30:43;;;;;;;2.65;1.50;;;11.50;78.20;;;10.70;65.05;93175.91;6081259;23;20572;-78
2022/02/17 09:33:12;;;;;;;2.92;1.25;;;11.50;77.10;;;10.61;63.38;93187.78;6128301;23;20204;-80
2022/02/17 09:35:40;;;;;;;2.83;1.30;;;11.40;75.80;;;10.53;62.65;93178.50;6128538;23;20239;-79
2022/02/17 09:38:07;;;;;;;5.32;1.60;;;11.40;75.60;;;10.45;61.99;93199.81;6103068;23;20201;-79
2022/02/17 09:40:36;;;;;;;3.00;1.35;;;11.40;75.10;;;10.44;61.00;93185.94;6126320;23;20208;-79
2022/02/17 09:43:05;;;;;;;3.38;1.40;;;11.30;74.30;;;10.49;60.27;93204.38;6077825;23;20271;-79
2022/02/17 09:45:36;;;;;;;2.45;1.33;;;11.30;73.60;;;10.57;58.69;93187.50;6101499;23;20204;-80
2022/02/17 09:48:05;;;;;;;2.88;1.40;;;11.30;73.10;;;10.63;57.97;93194.44;6102970;23;20207;-79
2022/02/17 09:50:32;;;;;;;3.83;1.60;;;11.40;72.40;;;10.70;57.86;93210.78;6128518;23;20527;-82
2022/02/17 09:53:01;;;;;;;3.80;1.50;;;11.50;71.20;;;10.79;58.56;93208.59;6106051;23;20168;-81
2022/02/17 09:55:30;;;;;;;2.72;1.48;;;11.50;70.10;;;10.85;57.69;93254.06;6129521;23;20711;-80
2022/02/17 09:57:57;;;;;;;6.32;1.63;;;11.50;67.70;;;11.00;54.69;93201.09;6105856;23;20176;-82
2022/02/17 10:00:24;;;;;;;3.00;1.60;;;11.50;68.30;;;11.16;51.85;93254.63;6081168;23;20701;-81
2022/02/17 10:02:52;;;;;;;4.22;1.45;;;11.60;66.50;;;11.30;49.18;93240.19;6129633;23;20180;-82
2022/02/17 10:05:19;;;;;;;4.43;1.33;;;11.60;64.70;;;11.45;47.49;93210.75;6129474;23;20252;-81
2022/02/17 10:07:47;;;;;;;3.53;1.60;;;11.60;63.40;;;11.56;47.76;93235.31;6153161;23;20197;-83
2022/02/17 10:10:23;;;;;;;4.05;1.75;;;11.70;65.30;;;11.67;45.74;93249.41;6128833;23;20641;-82
2022/02/17 10:13:01;;;;;;;4.95;1.80;;;11.80;63.00;;;11.80;47.26;93227.25;6105592;23;20511;-83
2022/02/17 10:15:38;;;;;;;2.55;1.50;;;11.90;64.40;;;11.90;47.02;93232.69;6105460;23;20667;-82
2022/02/17 10:18:14;;;;;;;6.03;1.60;;;12.00;63.80;;;11.96;45.91;93250.13;6129607;23;20180;-82
2022/02/17 10:21:07;;;;;;;8.15;1.88;;;12.10;63.90;;;12.02;45.89;93277.25;6129301;23;20194;-82
2022/02/17 10:23:41;;;;;;;6.18;1.65;;;12.20;64.30;;;12.09;45.26;93267.38;6105188;23;20177;-82
2022/02/17 10:26:19;;;;;;;4.18;1.80;;;12.20;63.90;;;12.14;45.08;93293.72;6105385;23;20656;-83
2022/02/17 10:28:59;;;;;;;3.10;1.70;;;12.20;63.20;;;12.19;45.13;93276.44;6155397;23;20287;-82
2022/02/17 10:31:35;;;;;;;6.22;2.00;;;12.30;63.20;;;12.25;44.89;93301.75;6129667;23;20177;-82
2022/02/17 10:34:05;;;;;;;3.47;1.80;;;12.40;63.10;;;12.33;44.94;93282.94;6105322;23;20195;-83